sensor_id;sensor_type;location;lat;lon;timestamp;temperature;humidity
40630;DHT22;26329;40.388;-3.710;2023-04-25T00:01:07;19.80;50.40
40630;DHT22;26329;40.388;-3.710;2023-04-25T00:11:10;19.80;50.70
40630;DHT22;26329;40.388;-3.710;2023-04-25T00:21:11;19.70;51.30
40630;DHT22;26329;40.388;-3.710;2023-04-25T00:31:13;19.60;51.60
40630;DHT22;26329;40.388;-3.710;2023-04-25T00:41:15;19.60;52.00
40630;DHT22;26329;40.388;-3.710;2023-04-25T00:51:19;19.50;51.90
40630;DHT22;26329;40.388;-3.710;2023-04-25T01:01:21;19.50;52.20
40630;DHT22;26329;40.388;-3.710;2023-04-25T01:11:22;19.40;52.10
40630;DHT22;26329;40.388;-3.710;2023-04-25T01:21:24;19.40;52.10
40630;DHT22;26329;40.388;-3.710;2023-04-25T01:31:28;19.20;52.40
40630;DHT22;26329;40.388;-3.710;2023-04-25T01:41:30;19.20;52.40
40630;DHT22;26329;40.388;-3.710;2023-04-25T01:51:32;19.20;52.40
40630;DHT22;26329;40.388;-3.710;2023-04-25T02:01:34;19.10;52.90
40630;DHT22;26329;40.388;-3.710;2023-04-25T02:11:35;18.90;53.30
40630;DHT22;26329;40.388;-3.710;2023-04-25T02:21:36;18.90;53.20
40630;DHT22;26329;40.388;-3.710;2023-04-25T02:31:38;18.90;53.60
40630;DHT22;26329;40.388;-3.710;2023-04-25T02:41:39;18.80;54.20
40630;DHT22;26329;40.388;-3.710;2023-04-25T02:51:41;18.70;54.10
40630;DHT22;26329;40.388;-3.710;2023-04-25T03:01:42;18.70;54.10
40630;DHT22;26329;40.388;-3.710;2023-04-25T03:11:44;18.50;54.70
40630;DHT22;26329;40.388;-3.710;2023-04-25T03:21:46;18.50;55.10
40630;DHT22;26329;40.388;-3.710;2023-04-25T03:31:47;18.40;55.00
40630;DHT22;26329;40.388;-3.710;2023-04-25T03:41:48;18.30;55.10
40630;DHT22;26329;40.388;-3.710;2023-04-25T03:51:50;18.30;55.60
40630;DHT22;26329;40.388;-3.710;2023-04-25T04:01:52;18.30;55.90
40630;DHT22;26329;40.388;-3.710;2023-04-25T04:11:53;18.10;56.70
40630;DHT22;26329;40.388;-3.710;2023-04-25T04:21:54;17.90;57.10
40630;DHT22;26329;40.388;-3.710;2023-04-25T04:31:56;17.80;57.70
40630;DHT22;26329;40.388;-3.710;2023-04-25T04:41:57;17.50;58.80
40630;DHT22;26329;40.388;-3.710;2023-04-25T04:51:59;17.40;58.70
40630;DHT22;26329;40.388;-3.710;2023-04-25T05:02:01;17.30;59.30
40630;DHT22;26329;40.388;-3.710;2023-04-25T05:12:03;17.30;59.20
40630;DHT22;26329;40.388;-3.710;2023-04-25T05:22:04;17.30;59.20
40630;DHT22;26329;40.388;-3.710;2023-04-25T05:32:06;17.30;59.40
40630;DHT22;26329;40.388;-3.710;2023-04-25T05:42:08;17.20;59.30
40630;DHT22;26329;40.388;-3.710;2023-04-25T05:52:10;17.10;59.00
40630;DHT22;26329;40.388;-3.710;2023-04-25T06:02:11;17.10;59.30
40630;DHT22;26329;40.388;-3.710;2023-04-25T06:12:12;17.00;60.50
40630;DHT22;26329;40.388;-3.710;2023-04-25T06:22:14;17.00;60.60
40630;DHT22;26329;40.388;-3.710;2023-04-25T06:32:15;16.90;60.00
40630;DHT22;26329;40.388;-3.710;2023-04-25T06:42:17;16.40;61.40
40630;DHT22;26329;40.388;-3.710;2023-04-25T06:52:18;16.80;60.60
40630;DHT22;26329;40.388;-3.710;2023-04-25T07:02:19;17.00;60.20
40630;DHT22;26329;40.388;-3.710;2023-04-25T07:12:22;17.30;58.30
40630;DHT22;26329;40.388;-3.710;2023-04-25T07:22:24;17.80;56.00
40630;DHT22;26329;40.388;-3.710;2023-04-25T07:32:27;18.60;54.30
40630;DHT22;26329;40.388;-3.710;2023-04-25T07:42:29;19.30;53.00
40630;DHT22;26329;40.388;-3.710;2023-04-25T07:52:30;20.10;51.80
40630;DHT22;26329;40.388;-3.710;2023-04-25T08:02:32;20.40;50.70
40630;DHT22;26329;40.388;-3.710;2023-04-25T08:12:34;20.90;49.80
40630;DHT22;26329;40.388;-3.710;2023-04-25T08:22:35;21.20;49.70
40630;DHT22;26329;40.388;-3.710;2023-04-25T08:32:36;21.60;49.20
40630;DHT22;26329;40.388;-3.710;2023-04-25T08:42:41;21.70;49.30
40630;DHT22;26329;40.388;-3.710;2023-04-25T08:52:47;21.90;48.60
40630;DHT22;26329;40.388;-3.710;2023-04-25T09:02:51;22.20;47.90
40630;DHT22;26329;40.388;-3.710;2023-04-25T09:13:04;22.40;47.30
40630;DHT22;26329;40.388;-3.710;2023-04-25T09:23:09;22.50;46.40
40630;DHT22;26329;40.388;-3.710;2023-04-25T09:33:11;23.00;45.50
40630;DHT22;26329;40.388;-3.710;2023-04-25T09:53:17;23.10;48.70
40630;DHT22;26329;40.388;-3.710;2023-04-25T10:03:20;23.40;45.00
40630;DHT22;26329;40.388;-3.710;2023-04-25T10:13:25;23.70;44.00
40630;DHT22;26329;40.388;-3.710;2023-04-25T10:23:29;23.80;42.00
40630;DHT22;26329;40.388;-3.710;2023-04-25T10:33:38;24.50;39.60
40630;DHT22;26329;40.388;-3.710;2023-04-25T10:43:42;24.00;40.00
40630;DHT22;26329;40.388;-3.710;2023-04-25T10:53:45;23.90;38.70
40630;DHT22;26329;40.388;-3.710;2023-04-25T11:03:47;24.00;39.50
40630;DHT22;26329;40.388;-3.710;2023-04-25T11:13:51;24.20;38.40
40630;DHT22;26329;40.388;-3.710;2023-04-25T11:23:54;24.60;37.20
40630;DHT22;26329;40.388;-3.710;2023-04-25T11:33:58;25.00;36.80
40630;DHT22;26329;40.388;-3.710;2023-04-25T11:44:00;25.10;35.80
40630;DHT22;26329;40.388;-3.710;2023-04-25T11:54:01;25.20;35.10
40630;DHT22;26329;40.388;-3.710;2023-04-25T12:04:31;25.30;35.20
40630;DHT22;26329;40.388;-3.710;2023-04-25T12:14:35;25.40;34.40
40630;DHT22;26329;40.388;-3.710;2023-04-25T12:24:36;25.70;33.00
40630;DHT22;26329;40.388;-3.710;2023-04-25T12:34:37;26.00;32.60
40630;DHT22;26329;40.388;-3.710;2023-04-25T12:44:39;26.40;31.90
40630;DHT22;26329;40.388;-3.710;2023-04-25T12:54:41;26.50;30.60
40630;DHT22;26329;40.388;-3.710;2023-04-25T13:04:42;26.80;29.30
40630;DHT22;26329;40.388;-3.710;2023-04-25T13:14:44;26.90;30.70
40630;DHT22;26329;40.388;-3.710;2023-04-25T13:24:45;26.90;30.50
40630;DHT22;26329;40.388;-3.710;2023-04-25T13:34:47;27.40;29.40
40630;DHT22;26329;40.388;-3.710;2023-04-25T13:44:48;28.30;28.00
40630;DHT22;26329;40.388;-3.710;2023-04-25T13:54:50;27.70;28.90
40630;DHT22;26329;40.388;-3.710;2023-04-25T14:04:52;27.60;28.70
40630;DHT22;26329;40.388;-3.710;2023-04-25T14:14:53;27.60;29.20
40630;DHT22;26329;40.388;-3.710;2023-04-25T14:24:55;27.60;29.40
40630;DHT22;26329;40.388;-3.710;2023-04-25T14:34:56;27.60;29.00
40630;DHT22;26329;40.388;-3.710;2023-04-25T14:44:57;27.80;29.10
40630;DHT22;26329;40.388;-3.710;2023-04-25T14:54:59;27.90;29.10
40630;DHT22;26329;40.388;-3.710;2023-04-25T15:05:06;27.90;29.30
40630;DHT22;26329;40.388;-3.710;2023-04-25T15:15:08;28.10;28.90
40630;DHT22;26329;40.388;-3.710;2023-04-25T15:25:13;28.20;28.90
40630;DHT22;26329;40.388;-3.710;2023-04-25T15:35:15;28.10;28.80
40630;DHT22;26329;40.388;-3.710;2023-04-25T15:45:18;28.10;28.50
40630;DHT22;26329;40.388;-3.710;2023-04-25T15:55:20;28.40;27.90
40630;DHT22;26329;40.388;-3.710;2023-04-25T16:05:21;28.40;27.70
40630;DHT22;26329;40.388;-3.710;2023-04-25T16:15:23;28.40;27.20
40630;DHT22;26329;40.388;-3.710;2023-04-25T16:25:25;28.30;26.70
40630;DHT22;26329;40.388;-3.710;2023-04-25T16:35:26;27.90;27.70
40630;DHT22;26329;40.388;-3.710;2023-04-25T16:45:30;27.70;28.60
40630;DHT22;26329;40.388;-3.710;2023-04-25T16:55:31;27.60;30.10
40630;DHT22;26329;40.388;-3.710;2023-04-25T17:05:33;27.60;30.20
40630;DHT22;26329;40.388;-3.710;2023-04-25T17:15:35;27.50;30.40
40630;DHT22;26329;40.388;-3.710;2023-04-25T17:25:36;27.50;29.90
40630;DHT22;26329;40.388;-3.710;2023-04-25T17:35:37;27.20;30.30
40630;DHT22;26329;40.388;-3.710;2023-04-25T17:45:39;27.00;31.10
40630;DHT22;26329;40.388;-3.710;2023-04-25T17:55:40;26.90;30.60
40630;DHT22;26329;40.388;-3.710;2023-04-25T18:05:43;26.80;30.80
40630;DHT22;26329;40.388;-3.710;2023-04-25T18:15:45;26.70;26.20
40630;DHT22;26329;40.388;-3.710;2023-04-25T18:25:46;26.40;24.80
40630;DHT22;26329;40.388;-3.710;2023-04-25T18:35:51;26.20;24.90
40630;DHT22;26329;40.388;-3.710;2023-04-25T18:45:53;26.00;25.20
40630;DHT22;26329;40.388;-3.710;2023-04-25T18:55:54;25.80;25.40
40630;DHT22;26329;40.388;-3.710;2023-04-25T19:05:56;25.50;25.60
40630;DHT22;26329;40.388;-3.710;2023-04-25T19:15:57;25.40;26.30
40630;DHT22;26329;40.388;-3.710;2023-04-25T19:25:58;25.10;27.00
40630;DHT22;26329;40.388;-3.710;2023-04-25T19:36:00;24.80;27.50
40630;DHT22;26329;40.388;-3.710;2023-04-25T19:46:01;24.50;28.30
40630;DHT22;26329;40.388;-3.710;2023-04-25T19:56:02;24.30;28.70
40630;DHT22;26329;40.388;-3.710;2023-04-25T20:06:05;24.10;29.30
40630;DHT22;26329;40.388;-3.710;2023-04-25T20:16:07;23.80;29.90
40630;DHT22;26329;40.388;-3.710;2023-04-25T20:26:08;23.60;30.50
40630;DHT22;26329;40.388;-3.710;2023-04-25T20:36:10;23.40;30.90
40630;DHT22;26329;40.388;-3.710;2023-04-25T20:46:13;23.20;31.30
40630;DHT22;26329;40.388;-3.710;2023-04-25T20:56:14;23.10;32.00
40630;DHT22;26329;40.388;-3.710;2023-04-25T21:06:17;23.00;32.20
40630;DHT22;26329;40.388;-3.710;2023-04-25T21:16:18;22.90;32.50
40630;DHT22;26329;40.388;-3.710;2023-04-25T21:26:20;22.80;33.30
40630;DHT22;26329;40.388;-3.710;2023-04-25T21:36:22;22.50;34.10
40630;DHT22;26329;40.388;-3.710;2023-04-25T21:46:23;22.40;34.50
40630;DHT22;26329;40.388;-3.710;2023-04-25T21:56:26;22.20;35.00
40630;DHT22;26329;40.388;-3.710;2023-04-25T22:06:27;21.90;36.20
40630;DHT22;26329;40.388;-3.710;2023-04-25T22:16:29;21.80;36.20
40630;DHT22;26329;40.388;-3.710;2023-04-25T22:26:30;21.60;36.80
40630;DHT22;26329;40.388;-3.710;2023-04-25T22:36:33;21.50;37.40
40630;DHT22;26329;40.388;-3.710;2023-04-25T22:46:35;21.50;37.80
40630;DHT22;26329;40.388;-3.710;2023-04-25T22:56:36;21.50;38.20
40630;DHT22;26329;40.388;-3.710;2023-04-25T23:06:38;21.50;38.40
40630;DHT22;26329;40.388;-3.710;2023-04-25T23:16:40;21.40;38.80
40630;DHT22;26329;40.388;-3.710;2023-04-25T23:26:41;21.30;39.00
40630;DHT22;26329;40.388;-3.710;2023-04-25T23:36:43;21.30;39.10
40630;DHT22;26329;40.388;-3.710;2023-04-25T23:46:44;21.20;39.90
40630;DHT22;26329;40.388;-3.710;2023-04-25T23:56:46;21.00;40.40
